Detall de PIREP

Printer-friendly versionPDF version

[2010/01/29 08:08:00]
Flight IATA:CT2111
Pilot Number:041
Company ICAO:CAT
Aircraft Type:F50/A
PAX:30
Departing Airport: LEST
Destination Airport: LEVC
Alternate Airport:LEAL
Online: VATSIM
Route:FORNO A33 ZMR A33 DISKO A33 INDEG A33 MAGIN A33 HORTA A33 CJN A33 PRADO A33 CENTA
Flight Level:FL180
No Slew and time accel
No pause
Crash detect
Detect pilot in Cockpit between each 30 and 45 minutes
08:08 Zero fuel Weight: 35102 Lbs, Fuel Weight: 4960 Lbs
08:08 VATSIM:LEST 290730Z 29006KT 270V330 5000 BR SCT004 BKN022 07/07 Q1015 NOSIG
08:08 VATSIM:LEVC 290730Z 26009KT CAVOK 05/01 Q1006 NOSIG
08:09 VOICE CATALONIAN
08:09 Parking Brakes off
08:16 Take-off
08:16 Take off Weight: 39964 Lbs
08:16 Wind: 266º @ 003 Knots Heading: 167º
08:16 POS N42º 53´ 46´´ W008º 24´ 54´´
08:16 Gear Up: 132 Knots
08:16 Flaps:1 at 132 Knots
08:16 Flaps:0 at 135 Knots
08:31 Wind:346º@026 Kno
ts Heading: 118º Ground Speed: 225 Knots Altitude 14386 ft
08:33 TOC
08:33 Fuel Weight: 4224 Lb
08:46 Wind:333º@028 Knots Heading: 121º Ground Speed: 282 Knots Altitude 17900 ft
09:01 Wind:331º@030 Knots Heading: 112º Ground Speed: 281 Knots Altitude 17903 ft
09:16 Wind:345º@027 Knots Heading: 112º Ground Speed: 275 Knots Altitude 17893 ft
09:23 TOD
09:23 Fuel Weight: 2775 Lb
09:31 Wind:325º@020 Knots Heading: 116º Ground Speed: 255 Knots Altitude 11663 ft
09:46 Wind:342º@021 Knots Heading: 148º Ground Speed: 235 Knots Altitude 5078 ft
09:52 Flaps:1 at 163 Knots
09:55 Flaps:2 at 151 Knots
09:58 Flaps:3 at 145 Knots
10:01 Wind:335º@008 Knots Heading: 040º Ground Speed: 138 Knots Altitude 3497 ft
10:03 Flaps:4 at 142 Knots
10:04 Gear Down: 124 Knots
10:04 Flaps:5 at 116 Knots
10:05 Flaps:6 at 108 Knots
10:11 TouchDown:Rate -346 ft/min Speed: 89 Knots
10:11 VAT
SIM:LEVC 291000Z 31006KT 280V340 CAVOK 12/02 Q1006 NOSIG
10:11 Land
10:11 Wind:303º@003 Knots
10:11 Heading: 296º
10:11 Flight Duration: 01:55
10:11 Landing Weight: 36894 Lbs
10:11 POS N39º 29´ 13´´ W000º 28´ 31´´
10:14 Parking brakes on
10:14 Block to Block Duration: 02:05
10:14 Final Fuel: 1761 Lbls
10:14 Spent Fuel: 3198 Lbls
10:14 Flight Length: 453 NM
10:14 TOD Land Length: 157 NM

Exportar CSV

Powered by Drupal - Modified by Danger4k